createdAt,value
2022-10-06T00:05:31.590Z,12.22
2022-10-06T00:16:00.310Z,12.14
2022-10-06T00:26:28.397Z,12.10
2022-10-06T00:36:56.414Z,12.06
2022-10-06T00:47:26.210Z,11.97
2022-10-06T00:57:54.996Z,11.84
2022-10-06T01:08:24.906Z,11.75
2022-10-06T01:18:56.804Z,11.67
2022-10-06T01:29:25.562Z,11.67
2022-10-06T01:39:53.568Z,11.68
2022-10-06T01:50:21.718Z,11.74
2022-10-06T02:00:48.149Z,12.07
2022-10-06T02:11:16.498Z,12.47
2022-10-06T02:21:44.483Z,12.57
2022-10-06T02:32:12.434Z,12.29
2022-10-06T02:42:41.188Z,12.06
2022-10-06T02:53:09.286Z,11.87
2022-10-06T03:03:36.087Z,11.96
2022-10-06T03:14:04.534Z,12.11
2022-10-06T03:24:32.839Z,12.09
2022-10-06T03:35:00.714Z,12.07
2022-10-06T03:45:27.257Z,12.22
2022-10-06T03:56:02.164Z,12.49
2022-10-06T04:06:31.564Z,12.66
2022-10-06T04:16:59.558Z,12.73
2022-10-06T04:27:28.918Z,12.78
2022-10-06T04:37:59.249Z,12.97
2022-10-06T04:48:28.309Z,13.02
2022-10-06T04:58:58.223Z,13.16
2022-10-06T05:09:26.079Z,13.25
2022-10-06T05:19:54.225Z,13.31
2022-10-06T05:30:22.201Z,13.26
2022-10-06T05:40:48.660Z,13.21
2022-10-06T05:51:17.541Z,13.23
2022-10-06T06:01:47.287Z,13.30
2022-10-06T06:12:16.650Z,13.22
2022-10-06T06:22:44.762Z,13.16
2022-10-06T06:33:11.076Z,13.21
2022-10-06T06:43:39.569Z,13.62
2022-10-06T06:54:08.340Z,14.17
2022-10-06T07:04:37.500Z,14.50
2022-10-06T07:15:23.410Z,14.75
2022-10-06T07:25:53.206Z,15.13
2022-10-06T07:36:22.686Z,15.30
2022-10-06T07:46:57.540Z,15.51
2022-10-06T07:57:26.936Z,15.86
2022-10-06T08:07:56.562Z,15.89
2022-10-06T08:18:47.577Z,15.90
2022-10-06T08:29:13.666Z,16.23
2022-10-06T08:39:43.007Z,16.64
2022-10-06T08:50:14.813Z,16.92
2022-10-06T09:00:43.390Z,17.15
2022-10-06T09:11:27.341Z,17.41
2022-10-06T09:22:00.149Z,17.59
2022-10-06T09:32:30.773Z,17.82
2022-10-06T09:42:58.854Z,18.04
2022-10-06T09:53:27.285Z,18.23
2022-10-06T10:14:49.222Z,18.43
2022-10-06T10:25:30.759Z,18.59
2022-10-06T10:36:00.807Z,18.78
2022-10-06T10:46:34.979Z,18.89
2022-10-06T10:57:04.225Z,19.00
2022-10-06T11:07:39.625Z,19.10
2022-10-06T11:18:22.499Z,19.17
2022-10-06T11:28:56.271Z,19.15
2022-10-06T11:39:31.050Z,19.07
2022-10-06T11:49:59.122Z,18.89
2022-10-06T12:00:46.773Z,18.85
2022-10-06T12:11:41.134Z,18.93
2022-10-06T12:22:17.697Z,18.97
2022-10-06T12:33:05.826Z,19.03
2022-10-06T12:43:59.300Z,19.04
2022-10-06T12:54:35.019Z,19.00
2022-10-06T13:05:11.547Z,19.16
2022-10-06T13:15:44.193Z,19.32
2022-10-06T13:26:22.858Z,19.41
2022-10-06T13:36:53.475Z,19.50
2022-10-06T13:47:23.802Z,19.54
2022-10-06T13:58:09.361Z,19.52
2022-10-06T14:08:38.508Z,19.44
2022-10-06T14:19:07.871Z,19.38
2022-10-06T14:29:38.084Z,19.30
2022-10-06T14:40:11.554Z,19.15
2022-10-06T14:50:40.370Z,19.02
2022-10-06T15:01:10.160Z,18.87
2022-10-06T15:11:39.433Z,18.63
2022-10-06T15:22:09.157Z,18.43
2022-10-06T15:32:37.348Z,18.32
2022-10-06T15:43:05.406Z,18.15
2022-10-06T15:53:33.470Z,18.00
2022-10-06T16:04:09.030Z,17.83
2022-10-06T16:14:37.553Z,17.63
2022-10-06T16:25:05.820Z,17.51
2022-10-06T16:35:34.101Z,17.44
2022-10-06T16:46:04.109Z,17.43
2022-10-06T16:56:35.247Z,17.40
2022-10-06T17:07:04.364Z,17.35
2022-10-06T17:17:32.421Z,17.34
2022-10-06T17:28:00.530Z,17.35
2022-10-06T17:38:30.865Z,17.33
2022-10-06T17:49:01.905Z,17.22
2022-10-06T17:59:32.069Z,16.83
2022-10-06T18:10:17.507Z,16.65
2022-10-06T18:20:48.316Z,16.64
2022-10-06T18:31:17.723Z,16.67
2022-10-06T18:41:47.697Z,16.56
2022-10-06T18:52:16.258Z,16.37
2022-10-06T19:02:48.226Z,16.21
2022-10-06T19:13:16.790Z,16.04
2022-10-06T19:23:45.086Z,16.10
2022-10-06T19:34:16.959Z,16.19
2022-10-06T19:44:45.363Z,16.09
2022-10-06T19:55:13.580Z,15.81
2022-10-06T20:05:41.689Z,15.22
2022-10-06T20:16:12.273Z,15.10
2022-10-06T20:26:42.607Z,14.87
2022-10-06T20:37:10.946Z,14.81
2022-10-06T20:47:39.045Z,14.85
2022-10-06T20:58:07.079Z,14.79
2022-10-06T21:08:35.911Z,14.73
2022-10-06T21:19:05.479Z,14.68
2022-10-06T21:29:33.625Z,14.69
2022-10-06T21:40:02.660Z,14.77
2022-10-06T21:50:30.823Z,14.68
2022-10-06T22:01:02.618Z,14.47
2022-10-06T22:11:32.335Z,14.31
2022-10-06T22:22:00.477Z,14.23
2022-10-06T22:32:28.559Z,14.11
2022-10-06T22:42:56.606Z,13.89
2022-10-06T22:53:26.555Z,13.72
2022-10-06T23:03:56.250Z,13.52
2022-10-06T23:14:24.792Z,13.31
2022-10-06T23:24:53.587Z,13.24
2022-10-06T23:35:21.635Z,13.08
2022-10-06T23:45:50.018Z,12.97
2022-10-06T23:56:19.171Z,12.86
